PWSweather.com
Personal Weather Stations
Station Observations
IROGLAN40
AalgaardNO 4330

AalgaardNO 4330

Lat: 58.773, Lon: 5.846

Elevation: 326

Station Type: Davis Vanatge Pro2

Latest ConditionsUpdated 10:00:01 AM GMT+01:01 Friday, Oct 31, 2014
Currently Today's Max Today's Min Today's Average
Temperature 48.5°F9.2°C 48.6°F9.2°C 45.3°F7.4°C 47.1°F8.4°C
Dew Point 44.8°F7.1°C 44.8°F7.1°C 41.1°F5.1°C 42.7°F5.9°C
Winds 11.0 mph SE17.7 kmh SE 13.7 mph SE22.0 kmh SE - 9.1 mph 14.6 kmh
Wind Gusts 16.0 mph25.7 kmh 25.0 mph40.2 kmh - -
Humidity 87% 90% 81% 85%
Pressure 30.05 in1017.6 mb 30.09 in1019.0 mb 30.03 in1016.9 mb -
Precipitation - 0.17 in4.3 mm - -
Hour Temp Dew Point Humidity Winds Wind Gusts Pressure Precip Precip Rate Daily Precip Total
10:00 AM 48.5°F9.2°C 44.8°F7.1°C 87% 11.0 mph SE17.7 kmh SE 16.0 mph25.7 kmh 30.05 in1017.6 mb 0.00 in0.0 mm 0.00 in/hr0.0 mm/hr 0.17 in4.3 mm
09:50 AM 48.5°F9.2°C 44.8°F7.1°C 87% 8.9 mph SE14.3 kmh SE 15.0 mph24.1 kmh 30.05 in1017.6 mb 0.00 in0.0 mm 0.00 in/hr0.0 mm/hr 0.17 in4.3 mm
09:40 AM 48.5°F9.2°C 44.8°F7.1°C 87% 11.9 mph SE19.2 kmh SE 16.0 mph25.7 kmh 30.05 in1017.6 mb 0.00 in0.0 mm 0.00 in/hr0.0 mm/hr 0.17 in4.3 mm
09:30 AM 48.4°F9.1°C 44.7°F7.1°C 87% 8.1 mph ESE13.0 kmh ESE 15.0 mph24.1 kmh 30.04 in1017.3 mb 0.00 in0.0 mm 0.00 in/hr0.0 mm/hr 0.17 in4.3 mm
09:20 AM 48.2°F9.0°C 44.8°F7.1°C 88% 10.2 mph SE16.4 kmh SE 16.0 mph25.7 kmh 30.04 in1017.3 mb 0.00 in0.0 mm 0.00 in/hr0.0 mm/hr 0.17 in4.3 mm
09:10 AM 48.0°F8.9°C 44.6°F7.0°C 88% 11.4 mph SE18.3 kmh SE 15.0 mph24.1 kmh 30.04 in1017.3 mb 0.00 in0.0 mm 0.00 in/hr0.0 mm/hr 0.17 in4.3 mm
09:00 AM 48.0°F8.9°C 44.6°F7.0°C 88% 6.9 mph SE11.1 kmh SE 10.0 mph16.1 kmh 30.04 in1017.3 mb 0.00 in0.0 mm 0.00 in/hr0.0 mm/hr 0.17 in4.3 mm
08:50 AM 47.8°F8.8°C 44.7°F7.1°C 89% 8.4 mph SE13.5 kmh SE 15.0 mph24.1 kmh 30.04 in1017.3 mb 0.00 in0.0 mm 0.00 in/hr0.0 mm/hr 0.17 in4.3 mm
08:40 AM 47.4°F8.6°C 44.4°F6.9°C 89% 9.6 mph SE15.4 kmh SE 15.0 mph24.1 kmh 30.04 in1017.3 mb 0.01 in0.3 mm 0.06 in/hr1.5 mm/hr 0.17 in4.3 mm
08:30 AM 47.1°F8.4°C 44.0°F6.7°C 89% 8.6 mph SE13.8 kmh SE 14.0 mph22.5 kmh 30.03 in1016.9 mb 0.00 in0.0 mm 0.00 in/hr0.0 mm/hr 0.16 in4.1 mm
08:20 AM 46.9°F8.3°C 44.1°F6.7°C 90% 7.6 mph ESE12.2 kmh ESE 11.0 mph17.7 kmh 30.03 in1016.9 mb 0.00 in0.0 mm 0.00 in/hr0.0 mm/hr 0.16 in4.1 mm
08:10 AM 46.7°F8.2°C 43.7°F6.5°C 89% 7.4 mph ESE11.9 kmh ESE 11.0 mph17.7 kmh 30.03 in1016.9 mb 0.01 in0.3 mm 0.06 in/hr1.5 mm/hr 0.16 in4.1 mm
08:00 AM 46.7°F8.2°C 43.6°F6.4°C 89% 8.5 mph ESE13.7 kmh ESE 13.0 mph20.9 kmh 30.03 in1016.9 mb 0.02 in0.5 mm 0.02 in/hr0.5 mm/hr 0.15 in3.8 mm
07:50 AM 46.6°F8.1°C 43.5°F6.4°C 89% 8.0 mph SE12.9 kmh SE 10.0 mph16.1 kmh 30.03 in1016.9 mb 0.01 in0.3 mm 0.06 in/hr1.5 mm/hr 0.13 in3.3 mm
07:40 AM 46.6°F8.1°C 43.2°F6.2°C 88% 7.8 mph SE12.6 kmh SE 13.0 mph20.9 kmh 30.04 in1017.3 mb 0.02 in0.5 mm 0.12 in/hr3.0 mm/hr 0.13 in3.3 mm
07:30 AM 46.7°F8.2°C 43.3°F6.3°C 88% 8.1 mph SE13.0 kmh SE 16.0 mph25.7 kmh 30.04 in1017.3 mb 0.02 in0.5 mm 0.12 in/hr3.0 mm/hr 0.11 in2.8 mm
07:20 AM 47.0°F8.3°C 43.3°F6.3°C 87% 9.8 mph SE15.8 kmh SE 15.0 mph24.1 kmh 30.04 in1017.3 mb 0.04 in1.0 mm 0.24 in/hr6.1 mm/hr 0.09 in2.3 mm
07:10 AM 47.4°F8.6°C 43.1°F6.2°C 85% 7.8 mph SE12.6 kmh SE 11.0 mph17.7 kmh 30.04 in1017.3 mb 0.03 in0.8 mm 0.18 in/hr4.6 mm/hr 0.06 in1.5 mm
07:00 AM 47.9°F8.8°C 43.3°F6.3°C 84% 7.8 mph SE12.6 kmh SE 12.0 mph19.3 kmh 30.04 in1017.3 mb 0.02 in0.5 mm 0.02 in/hr0.5 mm/hr 0.02 in0.5 mm
06:50 AM 48.6°F9.2°C 43.4°F6.3°C 82% 7.7 mph SE12.4 kmh SE 11.0 mph17.7 kmh 30.03 in1016.9 mb 0.01 in0.3 mm 0.06 in/hr1.5 mm/hr 0.01 in0.3 mm
06:40 AM 48.5°F9.2°C 42.9°F6.1°C 81% 7.8 mph SE12.6 kmh SE 13.0 mph20.9 kmh 30.03 in1016.9 mb 0.00 in0.0 mm 0.00 in/hr0.0 mm/hr 0.00 in0.0 mm
06:30 AM 48.4°F9.1°C 42.8°F6.0°C 81% 9.0 mph SE14.5 kmh SE 16.0 mph25.7 kmh 30.03 in1016.9 mb 0.00 in0.0 mm 0.00 in/hr0.0 mm/hr 0.00 in0.0 mm
06:20 AM 48.3°F9.1°C 42.7°F5.9°C 81% 11.1 mph SE17.9 kmh SE 15.0 mph24.1 kmh 30.03 in1016.9 mb 0.00 in0.0 mm 0.00 in/hr0.0 mm/hr 0.00 in0.0 mm
06:10 AM 48.2°F9.0°C 42.6°F5.9°C 81% 12.2 mph SE19.6 kmh SE 17.0 mph27.4 kmh 30.03 in1016.9 mb 0.00 in0.0 mm 0.00 in/hr0.0 mm/hr 0.00 in0.0 mm
06:00 AM 48.2°F9.0°C 43.0°F6.1°C 82% 9.6 mph SE15.4 kmh SE 12.0 mph19.3 kmh 30.03 in1016.9 mb 0.00 in0.0 mm 0.00 in/hr0.0 mm/hr 0.00 in0.0 mm
05:50 AM 48.2°F9.0°C 42.9°F6.1°C 82% 9.0 mph SE14.5 kmh SE 11.0 mph17.7 kmh 30.03 in1016.9 mb 0.00 in0.0 mm 0.00 in/hr0.0 mm/hr 0.00 in0.0 mm
05:40 AM 48.1°F8.9°C 42.9°F6.1°C 82% 6.6 mph ESE10.6 kmh ESE 11.0 mph17.7 kmh 30.03 in1016.9 mb 0.00 in0.0 mm 0.00 in/hr0.0 mm/hr 0.00 in0.0 mm
05:30 AM 48.1°F8.9°C 42.9°F6.1°C 82% 10.8 mph ESE17.4 kmh ESE 16.0 mph25.7 kmh 30.04 in1017.3 mb 0.00 in0.0 mm 0.00 in/hr0.0 mm/hr 0.00 in0.0 mm
05:20 AM 48.0°F8.9°C 42.8°F6.0°C 82% 8.4 mph ESE13.5 kmh ESE 13.0 mph20.9 kmh 30.04 in1017.3 mb 0.00 in0.0 mm 0.00 in/hr0.0 mm/hr 0.00 in0.0 mm
05:10 AM 47.9°F8.8°C 42.7°F5.9°C 82% 6.0 mph ESE9.7 kmh ESE 11.0 mph17.7 kmh 30.04 in1017.3 mb 0.00 in0.0 mm 0.00 in/hr0.0 mm/hr 0.00 in0.0 mm
05:00 AM 47.9°F8.8°C 43.0°F6.1°C 83% 8.7 mph SE14.0 kmh SE 13.0 mph20.9 kmh 30.03 in1016.9 mb 0.00 in0.0 mm 0.00 in/hr0.0 mm/hr 0.00 in0.0 mm
04:50 AM 47.6°F8.7°C 42.7°F5.9°C 83% 11.3 mph SE18.2 kmh SE 18.0 mph29.0 kmh 30.03 in1016.9 mb 0.00 in0.0 mm 0.00 in/hr0.0 mm/hr 0.00 in0.0 mm
04:40 AM 47.4°F8.6°C 42.5°F5.8°C 83% 12.7 mph SE20.4 kmh SE 16.0 mph25.7 kmh 30.03 in1016.9 mb 0.00 in0.0 mm 0.00 in/hr0.0 mm/hr 0.00 in0.0 mm
04:30 AM 47.2°F8.4°C 42.3°F5.7°C 83% 9.7 mph SE15.6 kmh SE 14.0 mph22.5 kmh 30.04 in1017.3 mb 0.00 in0.0 mm 0.00 in/hr0.0 mm/hr 0.00 in0.0 mm
04:20 AM 47.2°F8.4°C 42.3°F5.7°C 83% 12.1 mph SSE19.5 kmh SSE 17.0 mph27.4 kmh 30.04 in1017.3 mb 0.00 in0.0 mm 0.00 in/hr0.0 mm/hr 0.00 in0.0 mm
04:10 AM 47.0°F8.3°C 42.4°F5.8°C 84% 7.2 mph E11.6 kmh E 14.0 mph22.5 kmh 30.05 in1017.6 mb 0.00 in0.0 mm 0.00 in/hr0.0 mm/hr 0.00 in0.0 mm
04:00 AM 47.0°F8.3°C 42.4°F5.8°C 84% 7.3 mph SE11.7 kmh SE 14.0 mph22.5 kmh 30.05 in1017.6 mb 0.00 in0.0 mm 0.00 in/hr0.0 mm/hr 0.00 in0.0 mm
03:50 AM 46.8°F8.2°C 42.2°F5.7°C 84% 9.8 mph SE15.8 kmh SE 15.0 mph24.1 kmh 30.05 in1017.6 mb 0.00 in0.0 mm 0.00 in/hr0.0 mm/hr 0.00 in0.0 mm
03:40 AM 46.6°F8.1°C 42.0°F5.6°C 84% 11.3 mph SE18.2 kmh SE 14.0 mph22.5 kmh 30.05 in1017.6 mb 0.00 in0.0 mm 0.00 in/hr0.0 mm/hr 0.00 in0.0 mm
03:30 AM 46.6°F8.1°C 42.0°F5.6°C 84% 7.2 mph SE11.6 kmh SE 15.0 mph24.1 kmh 30.05 in1017.6 mb 0.00 in0.0 mm 0.00 in/hr0.0 mm/hr 0.00 in0.0 mm
03:20 AM 46.6°F8.1°C 42.0°F5.6°C 84% 9.9 mph SE15.9 kmh SE 19.0 mph30.6 kmh 30.05 in1017.6 mb 0.00 in0.0 mm 0.00 in/hr0.0 mm/hr 0.00 in0.0 mm
03:10 AM 46.7°F8.2°C 41.8°F5.4°C 83% 7.1 mph SSE11.4 kmh SSE 13.0 mph20.9 kmh 30.05 in1017.6 mb 0.00 in0.0 mm 0.00 in/hr0.0 mm/hr 0.00 in0.0 mm
03:00 AM 46.8°F8.2°C 41.9°F5.5°C 83% 8.4 mph E13.5 kmh E 17.0 mph27.4 kmh 30.06 in1017.9 mb 0.00 in0.0 mm 0.00 in/hr0.0 mm/hr 0.00 in0.0 mm
02:50 AM 46.8°F8.2°C 41.9°F5.5°C 83% 7.0 mph ESE11.3 kmh ESE 10.0 mph16.1 kmh 30.06 in1017.9 mb 0.00 in0.0 mm 0.00 in/hr0.0 mm/hr 0.00 in0.0 mm
02:40 AM 46.6°F8.1°C 41.7°F5.4°C 83% 13.7 mph SE22.0 kmh SE 22.0 mph35.4 kmh 30.06 in1017.9 mb 0.00 in0.0 mm 0.00 in/hr0.0 mm/hr 0.00 in0.0 mm
02:30 AM 46.6°F8.1°C 41.7°F5.4°C 83% 6.2 mph SE10.0 kmh SE 12.0 mph19.3 kmh 30.06 in1017.9 mb 0.00 in0.0 mm 0.00 in/hr0.0 mm/hr 0.00 in0.0 mm
02:20 AM 46.5°F8.1°C 41.6°F5.3°C 83% 9.4 mph E15.1 kmh E 12.0 mph19.3 kmh 30.06 in1017.9 mb 0.00 in0.0 mm 0.00 in/hr0.0 mm/hr 0.00 in0.0 mm
02:10 AM 46.5°F8.1°C 41.6°F5.3°C 83% 7.6 mph ESE12.2 kmh ESE 19.0 mph30.6 kmh 30.06 in1017.9 mb 0.00 in0.0 mm 0.00 in/hr0.0 mm/hr 0.00 in0.0 mm
02:00 AM 46.3°F7.9°C 41.4°F5.2°C 83% 8.7 mph SE14.0 kmh SE 13.0 mph20.9 kmh 30.06 in1017.9 mb 0.00 in0.0 mm 0.00 in/hr0.0 mm/hr 0.00 in0.0 mm
01:50 AM 46.2°F7.9°C 41.4°F5.2°C 83% 7.2 mph ESE11.6 kmh ESE 13.0 mph20.9 kmh 30.06 in1017.9 mb 0.00 in0.0 mm 0.00 in/hr0.0 mm/hr 0.00 in0.0 mm
01:40 AM 46.0°F7.8°C 41.4°F5.2°C 84% 7.8 mph E12.6 kmh E 17.0 mph27.4 kmh 30.06 in1017.9 mb 0.00 in0.0 mm 0.00 in/hr0.0 mm/hr 0.00 in0.0 mm
01:30 AM 46.0°F7.8°C 41.4°F5.2°C 84% 11.4 mph ESE18.3 kmh ESE 17.0 mph27.4 kmh 30.07 in1018.3 mb 0.00 in0.0 mm 0.00 in/hr0.0 mm/hr 0.00 in0.0 mm
01:20 AM 46.1°F7.8°C 41.5°F5.3°C 84% 8.4 mph ESE13.5 kmh ESE 13.0 mph20.9 kmh 30.07 in1018.3 mb 0.00 in0.0 mm 0.00 in/hr0.0 mm/hr 0.00 in0.0 mm
01:10 AM 46.1°F7.8°C 41.8°F5.4°C 85% 10.0 mph E16.1 kmh E 17.0 mph27.4 kmh 30.07 in1018.3 mb 0.00 in0.0 mm 0.00 in/hr0.0 mm/hr 0.00 in0.0 mm
01:00 AM 46.0°F7.8°C 41.7°F5.4°C 85% 9.6 mph SE15.4 kmh SE 10.0 mph16.1 kmh 30.08 in1018.6 mb 0.00 in0.0 mm 0.00 in/hr0.0 mm/hr 0.00 in0.0 mm
12:50 AM 45.7°F7.6°C 41.8°F5.4°C 86% 12.6 mph SE20.3 kmh SE 19.0 mph30.6 kmh 30.08 in1018.6 mb 0.00 in0.0 mm 0.00 in/hr0.0 mm/hr 0.00 in0.0 mm
12:40 AM 45.5°F7.5°C 41.6°F5.3°C 86% 12.3 mph SE19.8 kmh SE 21.0 mph33.8 kmh 30.08 in1018.6 mb 0.00 in0.0 mm 0.00 in/hr0.0 mm/hr 0.00 in0.0 mm
12:30 AM 45.4°F7.4°C 41.5°F5.3°C 86% 12.3 mph NE19.8 kmh NE 25.0 mph40.2 kmh 30.09 in1019.0 mb 0.00 in0.0 mm 0.00 in/hr0.0 mm/hr 0.00 in0.0 mm
12:20 AM 45.3°F7.4°C 41.4°F5.2°C 86% 5.8 mph SSE9.3 kmh SSE 10.0 mph16.1 kmh 30.09 in1019.0 mb 0.00 in0.0 mm 0.00 in/hr0.0 mm/hr 0.00 in0.0 mm
12:10 AM 45.3°F7.4°C 41.1°F5.1°C 85% 8.9 mph SE14.3 kmh SE 17.0 mph27.4 kmh 30.09 in1019.0 mb 0.00 in0.0 mm 0.00 in/hr0.0 mm/hr 0.00 in0.0 mm
12:00 AM 45.4°F7.4°C 41.2°F5.1°C 85% 6.9 mph SE11.1 kmh SE 13.0 mph20.9 kmh 30.09 in1019.0 mb 0.00 in0.0 mm 0.00 in/hr0.0 mm/hr 0.00 in0.0 mm